Time;durP1;ratioP1;P1;durP2;ratioP2;P2;SDS_P1;SDS_P2;PMS_P1;PMS_P2;Temp;Humidity;BMP_temperature;BMP_pressure;BME280_temperature;BME280_humidity;BME280_pressure;Samples;Min_cycle;Max_cycle;Signal;HPM_P1;HPM_P2
2023/09/29 00:00:35;;;;;;;;;;;;;;;16.38;67.39;98309.34;5013395;28;19932;-64
2023/09/29 00:03:23;;;;;;;;;;;;;;;16.32;67.53;98313.44;5022286;28;19929;-63
2023/09/29 00:06:11;;;;;;;;;;;;;;;16.33;67.69;98309.56;5026624;28;19932;-63
2023/09/29 00:09:06;;;;;;;;;;;;;;;16.34;67.72;98307.63;5026427;28;19934;-63
2023/09/29 00:11:55;;;;;;;;;;;;;;;16.36;67.62;98305.34;5023828;28;19964;-63
2023/09/29 00:14:43;;;;;;;;;;;;;;;16.38;67.55;98311.28;5030244;28;19925;-63
2023/09/29 00:17:31;;;;;;;;;;;;;;;16.41;67.43;98307.88;5031055;28;19925;-63
2023/09/29 00:20:23;;;;;;;;;;;;;;;16.39;67.29;98307.41;5026609;28;19929;-63
2023/09/29 00:23:13;;;;;;;;;;;;;;;16.39;67.32;98308.19;5029181;28;19960;-64
2023/09/29 00:26:01;;;;;;;;;;;;;;;16.35;67.52;98304.56;5031113;28;20382;-63
2023/09/29 00:28:50;;;;;;;;;;;;;;;16.21;68.11;98302.13;5029099;28;19955;-63
2023/09/29 00:31:41;;;;;;;;;;;;;;;16.11;68.32;98301.75;5018463;28;19925;-63
2023/09/29 00:34:30;;;;;;;;;;;;;;;16.10;68.44;98295.47;5025490;28;19925;-63
2023/09/29 00:37:20;;;;;;;;;;;;;;;16.14;68.33;98293.66;5028353;28;20038;-64
2023/09/29 00:40:12;;;;;;;;;;;;;;;16.11;68.15;98297.06;5014821;28;19936;-63
2023/09/29 00:43:00;;;;;;;;;;;;;;;16.14;68.28;98290.91;5029567;28;19933;-63
2023/09/29 00:45:50;;;;;;;;;;;;;;;16.12;68.30;98295.91;5023521;28;20018;-63
2023/09/29 00:48:38;;;;;;;;;;;;;;;16.04;68.43;98288.59;5022476;28;19932;-64
2023/09/29 00:51:26;;;;;;;;;;;;;;;15.97;68.68;98289.13;5028877;28;20018;-63
2023/09/29 00:54:16;;;;;;;;;;;;;;;15.95;68.48;98288.66;5010154;28;19929;-63
2023/09/29 00:57:05;;;;;;;;;;;;;;;15.97;68.60;98291.06;5026034;28;20379;-63
2023/09/29 00:59:54;;;;;;;;;;;;;;;15.94;68.65;98294.50;5030422;28;19925;-63
2023/09/29 01:02:44;;;;;;;;;;;;;;;15.89;68.96;98289.22;5031112;28;20055;-64
2023/09/29 01:05:35;;;;;;;;;;;;;;;15.92;68.95;98296.75;5025992;28;19929;-63
2023/09/29 01:08:26;;;;;;;;;;;;;;;15.96;68.52;98284.78;5010398;28;19936;-63
2023/09/29 01:11:14;;;;;;;;;;;;;;;15.98;68.71;98295.44;5028648;28;19972;-63
2023/09/29 01:14:02;;;;;;;;;;;;;;;15.98;68.38;98295.44;5029378;28;19925;-63
2023/09/29 01:16:50;;;;;;;;;;;;;;;15.97;68.47;98293.81;5030815;28;19925;-63
2023/09/29 01:19:41;;;;;;;;;;;;;;;15.98;68.49;98298.16;5018239;28;20342;-63
2023/09/29 01:22:31;;;;;;;;;;;;;;;15.98;68.40;98298.16;5013690;28;19925;-63
2023/09/29 01:25:20;;;;;;;;;;;;;;;15.97;68.54;98299.28;5028229;28;20054;-63
2023/09/29 01:28:09;;;;;;;;;;;;;;;15.94;68.83;98294.50;5027378;28;19925;-63
2023/09/29 01:30:57;;;;;;;;;;;;;;;15.93;68.56;98290.97;5024020;28;19925;-63
2023/09/29 01:33:45;;;;;;;;;;;;;;;15.95;68.51;98288.66;5026444;28;19925;-64
2023/09/29 01:36:35;;;;;;;;;;;;;;;15.96;68.54;98294.94;5030431;28;19925;-63
2023/09/29 01:39:23;;;;;;;;;;;;;;;15.93;68.53;98301.91;5014532;28;19929;-63
2023/09/29 01:42:13;;;;;;;;;;;;;;;15.93;68.55;98306.59;5025238;28;20536;-64
2023/09/29 01:45:03;;;;;;;;;;;;;;;15.87;68.62;98302.44;5027211;28;20044;-63
2023/09/29 01:47:52;;;;;;;;;;;;;;;15.80;68.99;98303.00;5024832;28;19929;-63
2023/09/29 01:50:40;;;;;;;;;;;;;;;15.78;68.92;98310.75;5029325;28;20409;-63
2023/09/29 01:53:30;;;;;;;;;;;;;;;15.81;68.97;98303.78;5028224;28;19929;-63
2023/09/29 01:56:21;;;;;;;;;;;;;;;15.81;68.76;98301.03;5026620;28;20286;-63
2023/09/29 01:59:10;;;;;;;;;;;;;;;15.80;68.75;98296.72;5001965;28;19932;-63
2023/09/29 02:01:58;;;;;;;;;;;;;;;15.76;68.90;98304.78;5007647;28;19925;-63
2023/09/29 02:04:47;;;;;;;;;;;;;;;15.69;69.35;98294.38;5010430;28;19928;-63
2023/09/29 02:07:36;;;;;;;;;;;;;;;15.67;69.22;98296.66;5026573;28;19960;-63
2023/09/29 02:10:24;;;;;;;;;;;;;;;15.61;69.06;98292.50;5009624;28;19939;-64
2023/09/29 02:13:15;;;;;;;;;;;;;;;15.68;69.18;98303.75;5029002;28;20745;-63
2023/09/29 02:16:09;;;;;;;;;;;;;;;15.64;69.15;98294.59;5013801;28;20321;-63
2023/09/29 02:19:01;;;;;;;;;;;;;;;15.61;69.26;98294.44;5010975;28;20464;-64
2023/09/29 02:21:49;;;;;;;;;;;;;;;15.52;69.28;98291.75;5027207;28;19976;-63
2023/09/29 02:24:37;;;;;;;;;;;;;;;15.50;69.56;98288.56;5009188;28;19976;-65
2023/09/29 02:27:28;;;;;;;;;;;;;;;15.46;69.53;98295.84;5031090;28;19925;-63
2023/09/29 02:30:17;;;;;;;;;;;;;;;15.46;69.47;98298.56;5010121;28;19940;-63
2023/09/29 02:33:07;;;;;;;;;;;;;;;15.38;69.71;98296.69;5024945;28;20367;-63
2023/09/29 02:35:57;;;;;;;;;;;;;;;15.41;69.47;98298.78;5004222;28;19925;-63
2023/09/29 02:38:45;;;;;;;;;;;;;;;15.42;69.31;98297.63;5013882;28;19960;-63
2023/09/29 02:41:35;;;;;;;;;;;;;;;15.36;69.57;98293.50;5016861;28;19925;-63
2023/09/29 02:44:23;;;;;;;;;;;;;;;15.31;69.55;98296.44;5027557;28;19940;-64
2023/09/29 02:47:11;;;;;;;;;;;;;;;15.26;69.72;98289.22;5013164;28;20064;-63
2023/09/29 02:50:00;;;;;;;;;;;;;;;15.17;70.13;98294.72;5015716;28;19937;-63
2023/09/29 02:52:49;;;;;;;;;;;;;;;15.16;70.09;98284.94;5023936;28;19925;-63
2023/09/29 02:55:38;;;;;;;;;;;;;;;15.22;69.86;98295.69;5021703;28;19947;-63
2023/09/29 02:58:26;;;;;;;;;;;;;;;15.23;69.63;98295.34;5002913;28;19925;-63
2023/09/29 03:01:16;;;;;;;;;;;;;;;15.22;69.59;98291.00;5011734;28;20438;-63
2023/09/29 03:04:07;;;;;;;;;;;;;;;15.25;69.59;98297.75;5004982;28;19988;-65
2023/09/29 03:06:57;;;;;;;;;;;;;;;15.19;69.43;98302.63;5025592;28;19925;-63
2023/09/29 03:09:48;;;;;;;;;;;;;;;15.27;69.49;98300.97;5026766;28;19931;-63
2023/09/29 03:12:36;;;;;;;;;;;;;;;15.24;69.08;98296.16;5005459;28;19997;-63
2023/09/29 03:15:24;;;;;;;;;;;;;;;15.22;69.12;98298.41;5017618;28;19959;-64
2023/09/29 03:18:12;;;;;;;;;;;;;;;15.17;69.13;98297.47;5011113;28;19929;-63
2023/09/29 03:21:00;;;;;;;;;;;;;;;15.08;69.37;98304.94;5028283;28;19948;-63
2023/09/29 03:23:50;;;;;;;;;;;;;;;15.06;69.57;98299.00;5023957;28;20012;-63
2023/09/29 03:26:38;;;;;;;;;;;;;;;15.02;69.50;98298.06;5024140;28;19947;-63
2023/09/29 03:29:26;;;;;;;;;;;;;;;15.03;69.40;98296.94;5027041;28;20394;-63
2023/09/29 03:32:14;;;;;;;;;;;;;;;15.04;69.37;98301.28;5023139;28;19971;-63
2023/09/29 03:35:04;;;;;;;;;;;;;;;15.07;69.09;98302.53;5027467;28;19935;-64
2023/09/29 03:37:52;;;;;;;;;;;;;;;14.93;69.30;98300.84;5026546;28;19929;-63
2023/09/29 03:40:44;;;;;;;;;;;;;;;14.93;69.36;98297.31;5026722;28;19925;-63
2023/09/29 03:43:32;;;;;;;;;;;;;;;14.92;69.48;98290.25;5025576;28;19925;-64
2023/09/29 03:46:20;;;;;;;;;;;;;;;14.93;69.30;98281.69;5026630;28;20379;-63
2023/09/29 03:49:10;;;;;;;;;;;;;;;14.92;69.55;98285.56;5026623;28;19933;-63
2023/09/29 03:51:59;;;;;;;;;;;;;;;14.97;69.36;98287.31;5031029;28;19936;-63
2023/09/29 03:54:48;;;;;;;;;;;;;;;14.98;69.34;98277.16;5028962;28;19947;-63
2023/09/29 03:57:38;;;;;;;;;;;;;;;14.98;69.38;98282.66;5028641;28;19932;-63
2023/09/29 04:00:26;;;;;;;;;;;;;;;14.97;69.25;98281.84;5032414;28;19934;-63
2023/09/29 04:03:15;;;;;;;;;;;;;;;14.99;69.13;98276.03;5024410;28;19932;-64
2023/09/29 04:06:03;;;;;;;;;;;;;;;14.99;68.93;98276.84;5030393;28;19929;-63
2023/09/29 04:08:51;;;;;;;;;;;;;;;15.00;68.94;98275.69;5031046;28;19932;-63
2023/09/29 04:11:40;;;;;;;;;;;;;;;14.98;68.79;98275.22;5024770;28;20657;-63
2023/09/29 04:14:30;;;;;;;;;;;;;;;14.93;68.89;98275.44;5030618;28;19929;-63
2023/09/29 04:17:21;;;;;;;;;;;;;;;14.93;68.65;98286.38;5027979;28;19932;-64
2023/09/29 04:20:09;;;;;;;;;;;;;;;14.85;68.54;98284.47;5025126;28;19937;-63
2023/09/29 04:22:59;;;;;;;;;;;;;;;14.91;68.38;98288.63;5028904;28;19925;-63
2023/09/29 04:25:47;;;;;;;;;;;;;;;14.84;68.18;98288.34;5025196;28;19925;-63
2023/09/29 04:28:35;;;;;;;;;;;;;;;14.85;68.38;98289.94;5029031;28;20370;-63
2023/09/29 04:31:24;;;;;;;;;;;;;;;14.83;68.22;98293.00;5028880;28;20294;-63
2023/09/29 04:34:13;;;;;;;;;;;;;;;14.81;68.20;98283.53;5025112;28;20461;-63
2023/09/29 04:37:01;;;;;;;;;;;;;;;14.79;68.27;98277.59;5028353;28;19933;-63
2023/09/29 04:39:49;;;;;;;;;;;;;;;14.72;68.36;98283.56;5028983;28;19925;-63
2023/09/29 04:42:37;;;;;;;;;;;;;;;14.71;68.51;98289.38;5027219;28;20298;-63
2023/09/29 04:45:25;;;;;;;;;;;;;;;14.66;68.61;98282.97;5029676;28;19933;-63
2023/09/29 04:48:14;;;;;;;;;;;;;;;14.66;68.62;98293.91;5030212;28;19925;-62
2023/09/29 04:51:02;;;;;;;;;;;;;;;14.68;68.65;98301.78;5025836;28;19986;-63
2023/09/29 04:53:51;;;;;;;;;;;;;;;14.64;68.74;98306.28;5028867;28;20425;-63
2023/09/29 04:56:39;;;;;;;;;;;;;;;14.54;69.00;98310.19;5022569;28;19925;-62
2023/09/29 04:59:27;;;;;;;;;;;;;;;14.51;69.31;98307.31;5022945;28;19936;-63
2023/09/29 05:02:14;;;;;;;;;;;;;;;14.56;69.24;98304.41;5027991;28;19925;-63
2023/09/29 05:05:04;;;;;;;;;;;;;;;14.60;69.13;98303.41;5026197;28;19925;-63
2023/09/29 05:07:52;;;;;;;;;;;;;;;14.62;69.11;98306.63;5030675;28;19933;-63
2023/09/29 05:10:40;;;;;;;;;;;;;;;14.63;69.16;98300.00;5026673;28;19933;-63
2023/09/29 05:13:32;;;;;;;;;;;;;;;14.63;68.93;98304.69;5030152;28;19937;-62
2023/09/29 05:16:20;;;;;;;;;;;;;;;14.67;68.93;98298.22;5028399;28;20007;-67
2023/09/29 05:19:08;;;;;;;;;;;;;;;14.63;68.91;98305.47;5028052;28;20379;-63
2023/09/29 05:21:57;;;;;;;;;;;;;;;14.58;69.34;98305.66;5024653;28;19924;-64
2023/09/29 05:24:45;;;;;;;;;;;;;;;14.56;69.60;98307.94;5021759;28;19929;-63
2023/09/29 05:27:33;;;;;;;;;;;;;;;14.54;69.65;98307.47;5027006;28;20031;-63
2023/09/29 05:30:21;;;;;;;;;;;;;;;14.53;70.37;98305.03;5022080;28;19940;-67
2023/09/29 05:33:09;;;;;;;;;;;;;;;14.58;69.88;98304.84;5030470;28;19925;-64
2023/09/29 05:35:57;;;;;;;;;;;;;;;14.61;70.19;98294.09;5028941;28;19924;-63
2023/09/29 05:38:47;;;;;;;;;;;;;;;14.70;70.09;98298.69;5029229;28;19925;-63
2023/09/29 05:41:35;;;;;;;;;;;;;;;14.72;69.76;98301.91;5020572;28;19976;-63
2023/09/29 05:44:23;;;;;;;;;;;;;;;14.73;69.89;98309.00;5021307;28;19952;-63
2023/09/29 05:47:12;;;;;;;;;;;;;;;14.75;70.08;98323.13;5025912;28;20311;-63
2023/09/29 05:50:00;;;;;;;;;;;;;;;14.75;69.99;98320.38;5030450;28;20087;-64
2023/09/29 05:53:04;;;;;;;;;;;;;;;14.80;70.18;98317.47;5029538;28;20498;-63
2023/09/29 05:56:05;;;;;;;;;;;;;;;14.84;70.10;98324.69;5014286;28;19929;-63
2023/09/29 05:58:53;;;;;;;;;;;;;;;14.85;69.96;98336.44;5016686;28;19932;-63
2023/09/29 06:01:41;;;;;;;;;;;;;;;14.84;70.04;98326.63;5022674;28;20594;-63
2023/09/29 06:04:29;;;;;;;;;;;;;;;14.80;70.18;98320.22;5031305;28;19987;-63
2023/09/29 06:07:20;;;;;;;;;;;;;;;14.76;70.60;98322.03;5026851;28;20067;-63
2023/09/29 06:10:08;;;;;;;;;;;;;;;14.79;70.57;98322.16;5030588;28;19932;-64
2023/09/29 06:13:01;;;;;;;;;;;;;;;14.88;70.45;98327.59;5022697;28;19931;-63
2023/09/29 06:15:51;;;;;;;;;;;;;;;14.94;70.48;98329.00;5027024;28;19929;-63
2023/09/29 06:18:39;;;;;;;;;;;;;;;14.97;70.44;98327.53;5028104;28;20011;-63
2023/09/29 06:21:28;;;;;;;;;;;;;;;14.91;70.57;98327.75;5026745;28;19980;-64
2023/09/29 06:24:16;;;;;;;;;;;;;;;14.97;70.43;98333.00;5023949;28;19926;-64
2023/09/29 06:27:05;;;;;;;;;;;;;;;14.97;70.78;98331.09;5025503;28;19929;-63
2023/09/29 06:29:54;;;;;;;;;;;;;;;14.98;70.49;98329.94;5028070;28;19925;-63
2023/09/29 06:32:45;;;;;;;;;;;;;;;15.03;70.48;98337.19;5026402;28;20012;-63
2023/09/29 06:35:34;;;;;;;;;;;;;;;15.04;70.75;98334.09;5027972;28;20275;-64
2023/09/29 06:38:23;;;;;;;;;;;;;;;15.10;70.71;98330.03;5013163;28;19929;-63
2023/09/29 06:41:11;;;;;;;;;;;;;;;15.16;70.54;98338.88;5024655;28;20458;-63
2023/09/29 06:43:59;;;;;;;;;;;;;;;15.22;70.45;98340.28;5027955;28;19975;-63
2023/09/29 06:46:48;;;;;;;;;;;;;;;15.28;70.50;98341.69;5028802;28;19925;-63
2023/09/29 06:49:36;;;;;;;;;;;;;;;15.34;70.43;98345.03;5021976;28;19933;-63
2023/09/29 06:52:25;;;;;;;;;;;;;;;15.39;70.67;98347.56;5024016;28;19980;-64
2023/09/29 06:55:13;;;;;;;;;;;;;;;15.43;70.74;98348.50;5025899;28;19964;-64
2023/09/29 06:58:03;;;;;;;;;;;;;;;15.44;70.94;98353.66;5027622;28;20023;-63
2023/09/29 07:00:51;;;;;;;;;;;;;;;15.49;70.99;98358.13;5023694;28;19925;-64
2023/09/29 07:03:41;;;;;;;;;;;;;;;15.46;71.15;98347.88;5024660;28;19932;-64
2023/09/29 07:06:31;;;;;;;;;;;;;;;15.60;71.14;98364.81;5022406;28;20008;-63
2023/09/29 07:09:20;;;;;;;;;;;;;;;15.65;71.19;98356.44;5028605;28;19929;-64
2023/09/29 07:12:08;;;;;;;;;;;;;;;15.72;71.09;98355.94;5018216;28;19941;-64
2023/09/29 07:14:56;;;;;;;;;;;;;;;15.80;71.29;98359.72;4995711;28;19929;-64
2023/09/29 07:17:44;;;;;;;;;;;;;;;15.87;71.50;98359.97;5016630;28;19933;-64
2023/09/29 07:20:34;;;;;;;;;;;;;;;15.93;71.53;98358.66;5011790;28;20058;-64
2023/09/29 07:23:22;;;;;;;;;;;;;;;15.98;71.39;98364.75;5009992;28;19929;-64
2023/09/29 07:26:10;;;;;;;;;;;;;;;16.06;71.41;98365.78;5004904;28;19948;-64
2023/09/29 07:29:01;;;;;;;;;;;;;;;16.14;71.44;98366.84;5007958;28;19932;-64
2023/09/29 07:31:49;;;;;;;;;;;;;;;16.20;71.46;98366.31;5007065;28;19932;-64
2023/09/29 07:34:37;;;;;;;;;;;;;;;16.31;71.38;98361.22;5002388;28;20280;-64
2023/09/29 07:37:27;;;;;;;;;;;;;;;16.40;71.06;98358.34;5013060;28;19940;-64
2023/09/29 07:40:15;;;;;;;;;;;;;;;16.49;71.27;98356.34;5004698;28;19930;-64
2023/09/29 07:43:03;;;;;;;;;;;;;;;16.60;71.39;98362.19;4999300;28;19929;-64
2023/09/29 07:45:51;;;;;;;;;;;;;;;16.67;71.11;98357.75;5007040;28;20311;-64
2023/09/29 07:48:40;;;;;;;;;;;;;;;16.75;70.56;98359.63;5011197;28;20056;-64
2023/09/29 07:51:28;;;;;;;;;;;;;;;16.85;70.33;98346.59;5005056;28;20063;-64
2023/09/29 07:54:17;;;;;;;;;;;;;;;16.96;69.81;98347.75;5004425;28;20525;-64
2023/09/29 07:57:05;;;;;;;;;;;;;;;16.97;69.40;98333.69;5007952;28;19925;-64
2023/09/29 07:59:53;;;;;;;;;;;;;;;17.10;69.11;98345.47;5007470;28;19937;-62
2023/09/29 08:02:43;;;;;;;;;;;;;;;17.17;68.75;98353.13;5007493;28;19940;-64
2023/09/29 08:05:31;;;;;;;;;;;;;;;17.24;68.45;98364.31;5007085;28;19926;-64
2023/09/29 08:08:19;;;;;;;;;;;;;;;17.34;67.97;98357.56;5008243;28;19925;-64
2023/09/29 08:11:08;;;;;;;;;;;;;;;17.39;67.68;98360.09;5003557;28;19937;-64
2023/09/29 08:13:56;;;;;;;;;;;;;;;17.44;67.32;98363.41;5019145;28;19937;-64
2023/09/29 08:16:44;;;;;;;;;;;;;;;17.51;66.82;98365.56;5025176;28;20441;-65
2023/09/29 08:19:33;;;;;;;;;;;;;;;17.51;66.41;98366.34;5021551;28;19925;-64
2023/09/29 08:22:21;;;;;;;;;;;;;;;17.57;66.55;98360.63;5023384;28;19925;-64
2023/09/29 08:25:20;;;;;;;;;;;;;;;17.66;66.62;98364.84;5023997;28;20298;-68
2023/09/29 08:28:10;;;;;;;;;;;;;;;17.74;66.05;98368.66;5027821;28;19925;-64
2023/09/29 08:30:58;;;;;;;;;;;;;;;17.84;65.29;98367.34;5024838;28;19976;-64
2023/09/29 08:33:46;;;;;;;;;;;;;;;17.93;64.82;98377.06;4998822;28;20843;-65
2023/09/29 08:36:38;;;;;;;;;;;;;;;18.04;64.58;98369.91;5019811;28;19929;-64
2023/09/29 08:39:26;;;;;;;;;;;;;;;18.13;64.55;98355.25;5020876;28;19933;-65
2023/09/29 08:42:17;;;;;;;;;;;;;;;18.23;64.09;98352.00;5023422;28;19926;-64
2023/09/29 08:45:09;;;;;;;;;;;;;;;18.35;64.13;98345.63;5026806;28;19925;-64
2023/09/29 08:47:56;;;;;;;;;;;;;;;18.47;63.85;98346.34;5027734;28;19929;-64
2023/09/29 08:50:44;;;;;;;;;;;;;;;18.59;63.08;98335.28;5025808;28;20784;-64
2023/09/29 08:53:33;;;;;;;;;;;;;;;18.63;62.81;98340.84;5023478;28;19933;-64
2023/09/29 08:56:21;;;;;;;;;;;;;;;18.66;63.04;98339.38;5028354;28;19929;-64
2023/09/29 08:59:09;;;;;;;;;;;;;;;18.72;62.75;98343.47;5018331;28;19934;-65
2023/09/29 09:01:58;;;;;;;;;;;;;;;18.87;62.28;98355.66;5026445;28;19925;-64
2023/09/29 09:04:47;;;;;;;;;;;;;;;18.97;61.51;98347.66;5022865;28;19930;-65
2023/09/29 09:07:36;;;;;;;;;;;;;;;19.04;61.72;98344.28;5021683;28;19925;-64
2023/09/29 09:10:30;;;;;;;;;;;;;;;19.10;61.30;98334.59;5021513;28;19929;-64
2023/09/29 09:13:21;;;;;;;;;;;;;;;19.11;61.03;98342.47;5024947;28;19971;-64
2023/09/29 09:16:09;;;;;;;;;;;;;;;19.15;61.30;98339.81;5015717;28;19991;-64
2023/09/29 09:19:08;;;;;;;;;;;;;;;19.16;61.73;98344.16;5030010;28;19925;-64
2023/09/29 09:21:56;;;;;;;;;;;;;;;19.17;61.53;98348.50;5024860;28;20482;-64
2023/09/29 09:24:44;;;;;;;;;;;;;;;19.20;61.44;98339.56;5024991;28;20075;-63
2023/09/29 09:27:37;;;;;;;;;;;;;;;19.19;61.06;98339.91;5029551;28;19998;-63
2023/09/29 09:30:25;;;;;;;;;;;;;;;19.19;60.95;98342.66;5027270;28;20414;-63
2023/09/29 09:33:17;;;;;;;;;;;;;;;19.21;61.47;98343.09;5026465;28;20349;-62
2023/09/29 09:36:09;;;;;;;;;;;;;;;19.25;60.87;98339.28;5026263;28;19952;-63
2023/09/29 09:39:03;;;;;;;;;;;;;;;19.28;60.93;98333.06;5022170;28;20378;-62
2023/09/29 09:41:51;;;;;;;;;;;;;;;19.34;60.60;98328.88;5026414;28;19930;-63
2023/09/29 09:44:41;;;;;;;;;;;;;;;19.41;61.03;98314.44;5026843;28;19952;-63
2023/09/29 09:47:29;;;;;;;;;;;;;;;19.46;60.53;98302.34;5026658;28;20003;-62
2023/09/29 09:50:19;;;;;;;;;;;;;;;19.51;60.04;98302.88;5025328;28;19963;-63
2023/09/29 09:53:09;;;;;;;;;;;;;;;19.55;59.95;98305.72;5027623;28;19940;-63
2023/09/29 09:55:57;;;;;;;;;;;;;;;19.56;59.43;98297.06;5028727;28;19925;-63
2023/09/29 09:58:47;;;;;;;;;;;;;;;19.59;60.16;98298.31;5026194;28;20583;-62
2023/09/29 10:01:35;;;;;;;;;;;;;;;19.61;60.64;98302.34;5021361;28;19931;-62
2023/09/29 10:04:24;;;;;;;;;;;;;;;19.67;60.98;98304.81;5026335;28;19945;-63
2023/09/29 10:07:14;;;;;;;;;;;;;;;19.70;61.45;98307.63;5009695;28;19929;-62
2023/09/29 10:10:04;;;;;;;;;;;;;;;19.79;61.57;98313.72;5023761;28;19932;-62
2023/09/29 10:12:55;;;;;;;;;;;;;;;19.90;62.75;98311.19;5016549;28;19948;-63
2023/09/29 10:15:43;;;;;;;;;;;;;;;20.05;63.62;98309.50;5026677;28;19940;-63
2023/09/29 10:18:32;;;;;;;;;;;;;;;20.17;62.97;98317.63;5028063;28;20290;-62
2023/09/29 10:21:21;;;;;;;;;;;;;;;20.27;62.45;98317.03;5025660;28;19936;-64
2023/09/29 10:24:11;;;;;;;;;;;;;;;20.35;61.48;98317.97;5022943;28;20542;-63
2023/09/29 10:27:05;;;;;;;;;;;;;;;20.38;62.49;98315.25;5024497;28;20002;-63
2023/09/29 10:30:05;;;;;;;;;;;;;;;20.46;62.47;98318.19;5030392;28;19936;-63
2023/09/29 10:33:05;;;;;;;;;;;;;;;20.45;59.04;98322.06;5029188;28;19925;-63
2023/09/29 10:35:53;;;;;;;;;;;;;;;20.53;61.33;98321.09;5025290;28;19925;-63
2023/09/29 10:38:41;;;;;;;;;;;;;;;20.48;58.54;98316.66;5026540;28;19925;-64
2023/09/29 10:41:32;;;;;;;;;;;;;;;20.46;57.98;98318.19;5027306;28;19929;-64
2023/09/29 10:44:27;;;;;;;;;;;;;;;20.41;58.22;98328.34;5021967;28;19926;-65
2023/09/29 10:47:16;;;;;;;;;;;;;;;20.49;60.95;98331.25;5018734;28;19926;-64
2023/09/29 10:50:05;;;;;;;;;;;;;;;20.53;59.73;98323.84;5022573;28;19925;-65
2023/09/29 10:52:53;;;;;;;;;;;;;;;20.60;59.98;98318.44;5018270;28;19967;-64
2023/09/29 10:55:42;;;;;;;;;;;;;;;20.64;58.42;98308.25;5014397;28;19932;-64
2023/09/29 10:58:36;;;;;;;;;;;;;;;20.64;58.12;98311.81;5016041;28;19929;-64
2023/09/29 11:01:30;;;;;;;;;;;;;;;20.66;58.95;98314.22;5012608;28;19936;-65
2023/09/29 11:04:18;;;;;;;;;;;;;;;20.66;57.94;98311.44;5027533;28;19925;-63
2023/09/29 11:07:06;;;;;;;;;;;;;;;20.70;59.21;98314.28;5015012;28;20379;-64
2023/09/29 11:09:55;;;;;;;;;;;;;;;20.73;58.29;98319.88;5028975;28;20007;-63
2023/09/29 11:12:46;;;;;;;;;;;;;;;20.80;59.09;98319.97;5022760;28;20024;-64
2023/09/29 11:15:38;;;;;;;;;;;;;;;20.84;58.77;98312.56;5017590;28;19929;-63
2023/09/29 11:18:28;;;;;;;;;;;;;;;20.86;57.63;98312.19;5003199;28;19933;-63
2023/09/29 11:21:19;;;;;;;;;;;;;;;20.81;57.25;98299.47;5018606;28;19987;-64
2023/09/29 11:24:08;;;;;;;;;;;;;;;20.85;57.88;98303.09;5020568;28;19925;-64
2023/09/29 11:27:00;;;;;;;;;;;;;;;20.90;57.74;98300.03;5026942;28;19941;-64
2023/09/29 11:29:48;;;;;;;;;;;;;;;20.91;57.50;98293.34;5023753;28;19925;-64
2023/09/29 11:32:37;;;;;;;;;;;;;;;20.92;56.71;98291.38;5019442;28;19925;-64
2023/09/29 11:35:29;;;;;;;;;;;;;;;20.92;57.20;98292.16;5026195;28;19936;-64
2023/09/29 11:38:19;;;;;;;;;;;;;;;20.96;57.08;98285.91;5013186;28;19973;-63
2023/09/29 11:41:11;;;;;;;;;;;;;;;20.99;57.19;98285.19;5012890;28;19932;-67
2023/09/29 11:43:59;;;;;;;;;;;;;;;21.00;56.96;98275.72;5031036;28;19925;-63
2023/09/29 11:46:47;;;;;;;;;;;;;;;21.01;56.71;98277.31;5010908;28;20079;-63
2023/09/29 11:49:35;;;;;;;;;;;;;;;21.00;56.93;98276.50;5026540;28;20468;-64
2023/09/29 11:52:27;;;;;;;;;;;;;;;21.03;56.86;98278.50;5026673;28;20371;-64
2023/09/29 11:55:15;;;;;;;;;;;;;;;21.02;56.26;98276.94;5024400;28;19937;-64
2023/09/29 11:58:03;;;;;;;;;;;;;;;21.05;55.90;98278.16;5026413;28;19960;-64
2023/09/29 12:00:51;;;;;;;;;;;;;;;21.09;55.17;98268.75;5022282;28;19932;-64
2023/09/29 12:03:39;;;;;;;;;;;;;;;21.10;56.29;98266.78;5022153;28;20607;-64
2023/09/29 12:06:27;;;;;;;;;;;;;;;21.12;56.40;98259.72;5024538;28;19929;-63
2023/09/29 12:09:17;;;;;;;;;;;;;;;21.12;56.45;98256.94;5020631;28;20027;-65
2023/09/29 12:12:06;;;;;;;;;;;;;;;21.13;56.02;98268.78;5026277;28;20008;-64
2023/09/29 12:14:54;;;;;;;;;;;;;;;21.14;56.22;98267.63;5030781;28;20393;-64
2023/09/29 12:17:42;;;;;;;;;;;;;;;21.16;56.10;98270.84;5027485;28;19964;-64
2023/09/29 12:20:30;;;;;;;;;;;;;;;21.19;55.82;98253.50;5030412;28;19974;-64
2023/09/29 12:23:18;;;;;;;;;;;;;;;21.25;55.67;98245.66;5027498;28;19944;-65
2023/09/29 12:26:08;;;;;;;;;;;;;;;21.31;55.18;98241.47;5031041;28;20516;-65
2023/09/29 12:28:56;;;;;;;;;;;;;;;21.37;55.23;98242.72;5026359;28;20500;-65
2023/09/29 12:31:44;;;;;;;;;;;;;;;21.47;54.50;98241.28;5029241;28;19929;-65
2023/09/29 12:34:34;;;;;;;;;;;;;;;21.53;54.50;98234.25;5027198;28;20003;-65
2023/09/29 12:37:22;;;;;;;;;;;;;;;21.54;54.02;98228.34;5024720;28;20549;-65
2023/09/29 12:40:11;;;;;;;;;;;;;;;21.59;54.13;98227.22;5027423;28;19933;-65
2023/09/29 12:43:01;;;;;;;;;;;;;;;21.60;54.22;98218.53;5011124;28;20442;-65
2023/09/29 12:45:50;;;;;;;;;;;;;;;21.67;54.97;98213.06;5030336;28;19926;-65
2023/09/29 12:48:38;;;;;;;;;;;;;;;21.71;54.20;98210.34;5023768;28;19925;-65
2023/09/29 12:51:27;;;;;;;;;;;;;;;21.70;54.36;98212.34;5030648;28;19925;-65
2023/09/29 12:54:15;;;;;;;;;;;;;;;21.69;55.46;98212.72;5025725;28;19960;-65
2023/09/29 12:57:03;;;;;;;;;;;;;;;21.71;54.49;98210.34;5026376;28;19929;-65
2023/09/29 12:59:55;;;;;;;;;;;;;;;21.72;54.46;98211.94;5020855;28;20450;-65
2023/09/29 13:02:43;;;;;;;;;;;;;;;21.69;54.90;98201.66;5023068;28;19932;-65
2023/09/29 13:05:31;;;;;;;;;;;;;;;21.69;54.33;98209.94;5028967;28;20390;-65
2023/09/29 13:08:19;;;;;;;;;;;;;;;21.69;53.26;98207.19;5015652;28;19931;-65
2023/09/29 13:11:08;;;;;;;;;;;;;;;21.73;53.56;98204.44;5022053;28;19929;-64
2023/09/29 13:13:56;;;;;;;;;;;;;;;21.75;53.69;98199.34;5025836;28;19932;-64
2023/09/29 13:16:45;;;;;;;;;;;;;;;21.76;53.73;98195.41;5031487;28;20631;-64
2023/09/29 13:19:35;;;;;;;;;;;;;;;21.76;53.44;98187.91;5030227;28;19925;-65
2023/09/29 13:22:24;;;;;;;;;;;;;;;21.88;52.51;98193.16;5029722;28;19929;-65
2023/09/29 13:25:12;;;;;;;;;;;;;;;21.94;52.36;98197.19;5026293;28;19929;-65
2023/09/29 13:28:00;;;;;;;;;;;;;;;21.98;51.80;98192.47;5023540;28;20030;-65
2023/09/29 13:30:49;;;;;;;;;;;;;;;;;;5030803;28;20607;-65
2023/09/29 13:33:44;;;;;;;;;;;;;;;22.03;51.90;98196.09;5027744;28;19929;-65
2023/09/29 13:36:34;;;;;;;;;;;;;;;22.02;51.79;98191.72;5028523;28;19929;-66
2023/09/29 13:39:24;;;;;;;;;;;;;;;22.03;52.24;98190.53;5030731;28;19929;-65
2023/09/29 13:42:12;;;;;;;;;;;;;;;22.07;51.48;98188.63;5029899;28;20019;-64
2023/09/29 13:45:00;;;;;;;;;;;;;;;22.05;51.74;98179.88;5021292;28;20406;-65
2023/09/29 13:47:48;;;;;;;;;;;;;;;22.05;51.91;98180.72;5027254;28;19996;-65
2023/09/29 13:50:37;;;;;;;;;;;;;;;22.05;51.95;98179.88;5029550;28;20074;-65
2023/09/29 13:53:25;;;;;;;;;;;;;;;22.07;52.18;98185.84;5025302;28;20024;-65
2023/09/29 13:56:13;;;;;;;;;;;;;;;22.05;51.61;98182.66;5029638;28;19932;-65
2023/09/29 13:59:02;;;;;;;;;;;;;;;22.08;51.57;98179.94;5029200;28;19936;-66
2023/09/29 14:01:51;;;;;;;;;;;;;;;22.13;51.62;98179.59;5027796;28;19934;-66
2023/09/29 14:04:41;;;;;;;;;;;;;;;22.16;51.61;98176.09;5026829;28;20015;-65
2023/09/29 14:07:30;;;;;;;;;;;;;;;22.13;51.99;98165.78;5030883;28;19931;-65
2023/09/29 14:10:18;;;;;;;;;;;;;;;22.15;52.45;98170.91;5029091;28;19968;-64
2023/09/29 14:13:06;;;;;;;;;;;;;;;22.16;52.16;98167.00;5028753;28;19947;-64
2023/09/29 14:15:55;;;;;;;;;;;;;;;22.18;52.16;98159.88;5016179;28;19929;-65
2023/09/29 14:18:45;;;;;;;;;;;;;;;22.17;52.15;98160.28;5026646;28;19944;-66
2023/09/29 14:21:33;;;;;;;;;;;;;;;22.14;52.18;98159.06;5022575;28;19944;-64
2023/09/29 14:24:22;;;;;;;;;;;;;;;22.13;52.30;98164.97;5021825;28;19933;-63
2023/09/29 14:27:10;;;;;;;;;;;;;;;22.16;52.08;98158.69;5027215;28;19932;-64
2023/09/29 14:29:59;;;;;;;;;;;;;;;22.17;51.85;98155.53;5021322;28;19933;-65
2023/09/29 14:32:48;;;;;;;;;;;;;;;22.19;52.13;98149.63;5024527;28;19929;-63
2023/09/29 14:35:36;;;;;;;;;;;;;;;22.23;51.21;98147.69;5020691;28;19940;-64
2023/09/29 14:38:35;;;;;;;;;;;;;;;22.31;51.45;98140.22;5022589;28;19935;-64
2023/09/29 14:41:26;;;;;;;;;;;;;;;22.41;51.58;98137.53;5026399;28;19982;-64